Time;durP1;ratioP1;P1;durP2;ratioP2;P2;SDS_P1;SDS_P2;PMS_P1;PMS_P2;Temp;Humidity;BMP_temperature;BMP_pressure;BME280_temperature;BME280_humidity;BME280_pressure;Samples;Min_cycle;Max_cycle;Signal;HPM_P1;HPM_P2
2022/04/11 00:02:46;;;;;;;;;;;;;;;10.53;85.17;99416.22;1744803;82;20575;-61
2022/04/11 00:05:52;;;;;;;;;;;;;;;10.45;85.12;99428.16;1744958;81;20224;-63
2022/04/11 00:08:56;;;;;;;;;;;;;;;10.39;85.25;99429.47;1744855;81;20236;-61
2022/04/11 00:12:01;;;;;;;;;;;;;;;10.37;85.32;99440.61;1744957;81;20189;-62
2022/04/11 00:15:06;;;;;;;;;;;;;;;10.35;85.38;99454.17;1744943;81;20496;-64
2022/04/11 00:18:12;;;;;;;;;;;;;;;10.34;85.38;99445.11;1745281;82;20297;-63
2022/04/11 00:21:19;;;;;;;;;;;;;;;10.31;85.33;99452.34;1744967;81;20204;-63
2022/04/11 00:24:24;;;;;;;;;;;;;;;10.28;85.38;99445.91;1748318;81;20204;-63
2022/04/11 00:27:30;;;;;;;;;;;;;;;10.26;85.34;99463.03;1771719;81;20250;-62
2022/04/11 00:30:35;;;;;;;;;;;;;;;10.23;85.34;99455.73;1739703;81;20207;-62
2022/04/11 00:33:41;;;;;;;;;;;;;;;10.18;85.33;99450.85;1772346;81;20200;-63
2022/04/11 00:36:46;;;;;;;;;;;;;;;10.12;85.40;99444.80;1771911;79;20540;-62
2022/04/11 00:39:51;;;;;;;;;;;;;;;10.09;85.50;99452.55;1771862;79;20192;-62
2022/04/11 00:42:57;;;;;;;;;;;;;;;10.06;85.68;99448.30;1772349;81;20195;-63
2022/04/11 00:46:02;;;;;;;;;;;;;;;10.07;85.72;99449.12;1772430;79;20235;-63
2022/04/11 00:49:07;;;;;;;;;;;;;;;10.06;85.81;99458.38;1772523;81;20479;-63
2022/04/11 00:52:13;;;;;;;;;;;;;;;10.03;85.78;99460.99;1771512;81;20235;-62
2022/04/11 00:55:19;;;;;;;;;;;;;;;10.01;85.82;99468.53;1772310;80;20195;-64
2022/04/11 00:58:25;;;;;;;;;;;;;;;9.99;85.92;99484.81;1772119;81;20544;-61
2022/04/11 01:01:30;;;;;;;;;;;;;;;9.96;85.91;99479.20;1772159;79;20251;-62
2022/04/11 01:04:39;;;;;;;;;;;;;;;9.95;85.91;99484.35;1771864;81;20183;-63
2022/04/11 01:07:48;;;;;;;;;;;;;;;9.95;85.89;99480.25;1772217;81;20228;-63
2022/04/11 01:10:55;;;;;;;;;;;;;;;9.96;85.88;99470.14;1750402;81;20216;-61
2022/04/11 01:14:00;;;;;;;;;;;;;;;9.94;85.88;99471.70;1772134;81;20211;-62
2022/04/11 01:17:05;;;;;;;;;;;;;;;9.91;85.98;99469.36;1772451;79;20536;-63
2022/04/11 01:20:16;;;;;;;;;;;;;;;9.87;86.13;99467.22;1772125;79;20552;-61
2022/04/11 01:23:21;;;;;;;;;;;;;;;9.84;86.40;99473.93;1772502;81;20199;-62
2022/04/11 01:26:28;;;;;;;;;;;;;;;9.83;86.58;99466.75;1765294;79;20560;-59
2022/04/11 01:29:34;;;;;;;;;;;;;;;9.83;86.71;99450.89;1762528;81;20200;-61
2022/04/11 01:32:38;;;;;;;;;;;;;;;9.77;86.86;99440.20;1762513;81;20295;-62
2022/04/11 01:35:43;;;;;;;;;;;;;;;9.72;87.10;99424.90;1763047;80;20327;-62
2022/04/11 01:38:49;;;;;;;;;;;;;;;9.67;87.20;99451.95;1762416;80;20184;-61
2022/04/11 01:41:55;;;;;;;;;;;;;;;9.63;87.57;99457.48;1729016;81;20274;-60
2022/04/11 01:45:01;;;;;;;;;;;;;;;9.63;87.82;99442.97;1690904;82;20249;-61
2022/04/11 01:48:06;;;;;;;;;;;;;;;9.63;87.92;99444.33;1710256;84;20193;-63
2022/04/11 01:51:12;;;;;;;;;;;;;;;9.62;87.93;99446.75;1712172;82;20200;-61
2022/04/11 01:54:17;;;;;;;;;;;;;;;9.59;87.88;99444.41;1711886;84;20501;-60
2022/04/11 01:57:26;;;;;;;;;;;;;;;9.57;88.11;99462.36;1711862;84;20524;-60
2022/04/11 02:00:32;;;;;;;;;;;;;;;9.60;88.20;99463.84;1712424;82;20200;-63
2022/04/11 02:03:39;;;;;;;;;;;;;;;9.58;88.27;99474.97;1710321;84;20583;-62
2022/04/11 02:06:44;;;;;;;;;;;;;;;9.60;88.32;99468.80;1710720;82;20196;-61
2022/04/11 02:09:49;;;;;;;;;;;;;;;9.60;88.42;99478.88;1709998;82;20232;-62
2022/04/11 02:12:54;;;;;;;;;;;;;;;9.64;88.51;99460.53;1709936;84;20272;-61
2022/04/11 02:15:59;;;;;;;;;;;;;;;9.68;88.37;99482.87;1709947;82;20192;-62
2022/04/11 02:19:04;;;;;;;;;;;;;;;9.68;88.32;99499.26;1709960;84;20228;-64
2022/04/11 02:22:08;;;;;;;;;;;;;;;9.72;88.50;99516.45;1710628;82;20584;-63
2022/04/11 02:25:13;;;;;;;;;;;;;;;9.79;88.39;99520.63;1710006;82;20265;-63
2022/04/11 02:28:19;;;;;;;;;;;;;;;9.82;88.20;99515.63;1687715;84;20202;-63
2022/04/11 02:31:23;;;;;;;;;;;;;;;9.84;87.97;99525.00;1702574;83;20232;-63
2022/04/11 02:34:29;;;;;;;;;;;;;;;9.85;87.92;99523.95;1702667;84;20292;-62
2022/04/11 02:37:36;;;;;;;;;;;;;;;9.87;87.76;99517.78;1702800;84;20265;-63
2022/04/11 02:40:40;;;;;;;;;;;;;;;9.88;87.66;99518.95;1702671;83;20232;-62
2022/04/11 02:43:47;;;;;;;;;;;;;;;9.89;87.39;99513.84;1702596;84;20615;-65
2022/04/11 02:46:53;;;;;;;;;;;;;;;9.90;87.35;99538.75;1702588;83;20616;-63
2022/04/11 02:49:58;;;;;;;;;;;;;;;9.90;87.16;99549.69;1703033;83;20229;-64
2022/04/11 02:53:07;;;;;;;;;;;;;;;9.92;87.12;99544.89;1702890;84;20220;-64
2022/04/11 02:56:14;;;;;;;;;;;;;;;9.92;86.93;99544.03;1702934;83;20252;-63
2022/04/11 02:59:18;;;;;;;;;;;;;;;9.91;86.77;99545.08;1703124;84;20237;-65
2022/04/11 03:02:23;;;;;;;;;;;;;;;9.92;86.71;99565.39;1703222;84;20184;-64
2022/04/11 03:05:31;;;;;;;;;;;;;;;9.92;86.61;99568.12;1703253;83;20185;-64
2022/04/11 03:08:36;;;;;;;;;;;;;;;9.89;86.22;99574.48;1706431;84;20248;-66
2022/04/11 03:11:44;;;;;;;;;;;;;;;9.82;86.13;99574.91;1770312;80;20188;-64
2022/04/11 03:14:51;;;;;;;;;;;;;;;9.79;86.19;99566.58;1770420;80;20235;-65
2022/04/11 03:17:58;;;;;;;;;;;;;;;9.74;86.14;99574.50;1770233;80;20196;-64
2022/04/11 03:21:03;;;;;;;;;;;;;;;9.71;86.22;99578.98;1770292;80;20191;-64
2022/04/11 03:24:11;;;;;;;;;;;;;;;9.71;86.25;99575.39;1770233;81;20552;-65
2022/04/11 03:27:17;;;;;;;;;;;;;;;9.64;86.16;99578.57;1770094;81;20204;-65
2022/04/11 03:30:22;;;;;;;;;;;;;;;9.57;86.29;99585.30;1745366;81;20508;-64
2022/04/11 03:33:28;;;;;;;;;;;;;;;9.51;86.58;99592.04;1745373;82;20300;-64
2022/04/11 03:36:34;;;;;;;;;;;;;;;9.51;86.86;99587.44;1745419;81;20184;-66
2022/04/11 03:39:39;;;;;;;;;;;;;;;9.50;87.00;99591.72;1745543;82;20176;-58
2022/04/11 03:42:45;;;;;;;;;;;;;;;9.45;86.93;99605.91;1771762;81;20230;-61
2022/04/11 03:45:51;;;;;;;;;;;;;;;9.34;86.92;99594.09;1775715;80;20209;-60
2022/04/11 03:48:56;;;;;;;;;;;;;;;9.23;87.17;99600.55;1775478;81;20225;-62
2022/04/11 03:52:01;;;;;;;;;;;;;;;9.13;87.25;99595.36;1775160;80;20201;-61
2022/04/11 03:55:10;;;;;;;;;;;;;;;8.97;86.97;99609.16;1775514;80;20645;-59
2022/04/11 03:58:15;;;;;;;;;;;;;;;8.85;87.14;99614.70;1766340;80;20218;-59
2022/04/11 04:01:21;;;;;;;;;;;;;;;8.75;87.16;99619.05;1775494;80;20233;-61
2022/04/11 04:04:26;;;;;;;;;;;;;;;8.65;87.33;99633.98;1775135;81;20328;-62
2022/04/11 04:07:32;;;;;;;;;;;;;;;8.58;87.61;99637.94;1775054;81;20206;-61
2022/04/11 04:10:37;;;;;;;;;;;;;;;8.58;87.89;99639.81;1775189;80;20198;-60
2022/04/11 04:13:43;;;;;;;;;;;;;;;8.57;87.80;99658.08;1775143;81;20249;-60
2022/04/11 04:16:49;;;;;;;;;;;;;;;8.55;87.74;99666.09;1775116;80;20225;-60
2022/04/11 04:19:56;;;;;;;;;;;;;;;8.54;87.75;99663.90;1775931;80;20178;-60
2022/04/11 04:23:02;;;;;;;;;;;;;;;8.52;87.37;99655.55;1775557;81;20197;-61
2022/04/11 04:26:08;;;;;;;;;;;;;;;8.53;87.56;99654.53;1775425;80;20272;-59
2022/04/11 04:29:15;;;;;;;;;;;;;;;8.59;87.49;99655.17;1781365;79;20190;-59
2022/04/11 04:32:23;;;;;;;;;;;;;;;8.59;87.06;99657.36;1796137;80;20534;-61
2022/04/11 04:35:28;;;;;;;;;;;;;;;8.57;86.74;99677.68;1796327;79;20217;-60
2022/04/11 04:38:34;;;;;;;;;;;;;;;8.51;86.57;99674.31;1796046;80;20359;-61
2022/04/11 04:41:38;;;;;;;;;;;;;;;8.50;86.75;99666.64;1710908;83;20256;-62
2022/04/11 04:44:48;;;;;;;;;;;;;;;8.49;86.55;99676.36;1711450;83;20576;-60
2022/04/11 04:47:55;;;;;;;;;;;;;;;8.51;86.56;99671.59;1710897;83;20611;-60
2022/04/11 04:51:00;;;;;;;;;;;;;;;8.52;86.22;99674.63;1710871;83;20584;-61
2022/04/11 04:54:07;;;;;;;;;;;;;;;8.53;86.14;99674.98;1711617;82;20255;-61
2022/04/11 04:57:14;;;;;;;;;;;;;;;8.60;86.21;99667.77;1738822;82;20527;-60
2022/04/11 05:00:19;;;;;;;;;;;;;;;8.65;85.71;99677.12;1723713;82;20212;-60
2022/04/11 05:03:25;;;;;;;;;;;;;;;8.65;85.38;99677.62;1710645;83;20236;-62
2022/04/11 05:06:31;;;;;;;;;;;;;;;8.69;85.29;99687.13;1711245;83;20255;-62
2022/04/11 05:09:38;;;;;;;;;;;;;;;8.72;85.07;99673.98;1710714;83;20607;-60
2022/04/11 05:12:51;;;;;;;;;;;;;;;8.75;84.58;99679.61;1712802;82;20220;-61
2022/04/11 05:15:58;;;;;;;;;;;;;;;8.67;84.09;99677.77;1730321;82;20523;-60
2022/04/11 05:19:05;;;;;;;;;;;;;;;8.68;84.29;99679.98;1720757;82;20543;-62
2022/04/11 05:22:11;;;;;;;;;;;;;;;8.70;83.90;99679.30;1725560;82;20616;-63
2022/04/11 05:25:17;;;;;;;;;;;;;;;8.77;83.64;99687.94;1727942;82;20598;-65
2022/04/11 05:28:24;;;;;;;;;;;;;;;8.74;82.92;99679.26;1731767;82;20618;-65
2022/04/11 05:31:29;;;;;;;;;;;;;;;8.76;82.87;99685.39;1781358;77;20217;-66
2022/04/11 05:34:34;;;;;;;;;;;;;;;8.77;82.26;99692.53;1791801;80;20245;-63
2022/04/11 05:37:39;;;;;;;;;;;;;;;8.79;81.98;99694.08;1791406;80;20246;-64
2022/04/11 05:40:48;;;;;;;;;;;;;;;8.85;81.48;99695.21;1791198;79;20496;-63
2022/04/11 05:44:07;;;;;;;;;;;;;;;8.90;80.61;99706.44;1788861;80;20537;-62
2022/04/11 05:47:12;;;;;;;;;;;;;;;8.78;79.83;99710.09;1770979;80;20197;-64
2022/04/11 05:50:19;;;;;;;;;;;;;;;8.72;79.92;99697.72;1768139;80;20202;-63
2022/04/11 05:53:26;;;;;;;;;;;;;;;8.71;79.71;99712.36;1768444;80;20206;-64
2022/04/11 05:56:34;;;;;;;;;;;;;;;8.63;79.31;99700.14;1768998;80;20218;-64
2022/04/11 05:59:38;;;;;;;;;;;;;;;8.66;79.59;99703.36;1767808;80;20312;-64
2022/04/11 06:02:43;;;;;;;;;;;;;;;8.70;79.05;99714.77;1766584;81;20583;-65
2022/04/11 06:05:50;;;;;;;;;;;;;;;8.65;78.85;99718.05;1767157;80;20505;-61
2022/04/11 06:08:55;;;;;;;;;;;;;;;8.57;78.45;99713.14;1766824;80;20245;-61
2022/04/11 06:12:03;;;;;;;;;;;;;;;8.52;78.69;99710.09;1765835;81;20555;-62
2022/04/11 06:15:07;;;;;;;;;;;;;;;8.53;78.81;99720.83;1767347;80;20210;-63
2022/04/11 06:18:14;;;;;;;;;;;;;;;8.54;78.51;99713.00;1769742;80;20570;-62
2022/04/11 06:21:20;;;;;;;;;;;;;;;8.52;78.41;99707.37;1780272;80;20245;-63
2022/04/11 06:24:25;;;;;;;;;;;;;;;8.55;78.42;99708.38;1779286;80;20224;-64
2022/04/11 06:27:41;;;;;;;;;;;;;;;8.49;77.80;99715.91;1788847;78;20265;-64
2022/04/11 06:30:47;;;;;;;;;;;;;;;8.51;77.75;99722.05;1781242;79;20265;-64
2022/04/11 06:33:55;;;;;;;;;;;;;;;8.56;77.43;99732.73;1794773;80;20526;-63
2022/04/11 06:37:01;;;;;;;;;;;;;;;8.65;77.40;99733.05;1776639;80;20237;-69
2022/04/11 06:40:06;;;;;;;;;;;;;;;8.75;76.97;99743.20;1775465;80;20562;-60
2022/04/11 06:43:11;;;;;;;;;;;;;;;8.81;76.32;99747.96;1778093;80;20256;-60
2022/04/11 06:46:21;;;;;;;;;;;;;;;8.87;75.32;99764.11;1786414;79;20206;-61
2022/04/11 06:49:28;;;;;;;;;;;;;;;8.82;75.11;99760.56;1784281;78;20536;-59
2022/04/11 06:52:33;;;;;;;;;;;;;;;8.94;74.90;99763.74;1764764;79;20409;-61
2022/04/11 06:55:37;;;;;;;;;;;;;;;8.98;74.01;99764.56;1773329;80;20558;-58
2022/04/11 06:58:44;;;;;;;;;;;;;;;8.98;73.58;99771.89;1783719;80;20205;-61
2022/04/11 07:01:51;;;;;;;;;;;;;;;9.02;73.31;99797.28;1789627;80;20229;-59
2022/04/11 07:04:57;;;;;;;;;;;;;;;9.03;72.99;99777.16;1776469;80;20209;-61
2022/04/11 07:08:03;;;;;;;;;;;;;;;9.12;73.00;99792.12;1799626;80;20264;-61
2022/04/11 07:11:09;;;;;;;;;;;;;;;9.10;72.31;99797.77;1799573;79;20544;-64
2022/04/11 07:14:17;;;;;;;;;;;;;;;9.04;72.12;99797.95;1799401;80;20252;-62
2022/04/11 07:17:21;;;;;;;;;;;;;;;9.03;72.29;99783.98;1793450;80;20213;-63
2022/04/11 07:20:25;;;;;;;;;;;;;;;9.10;72.13;99789.58;1793813;80;20584;-58
2022/04/11 07:23:31;;;;;;;;;;;;;;;9.03;71.80;99794.05;1798698;79;20256;-60
2022/04/11 07:26:35;;;;;;;;;;;;;;;8.94;71.97;99785.04;1793601;79;20245;-60
2022/04/11 07:29:39;;;;;;;;;;;;;;;8.86;71.96;99792.45;1784088;80;20225;-61
2022/04/11 07:32:45;;;;;;;;;;;;;;;8.84;72.00;99784.95;1775140;79;20245;-60
2022/04/11 07:35:52;;;;;;;;;;;;;;;8.86;71.66;99798.73;1777413;79;20615;-63
2022/04/11 07:38:59;;;;;;;;;;;;;;;8.84;71.82;99808.14;1776644;81;20508;-59
2022/04/11 07:42:05;;;;;;;;;;;;;;;8.82;71.51;99827.42;1777106;79;20644;-60
2022/04/11 07:45:12;;;;;;;;;;;;;;;8.79;71.34;99840.57;1718573;82;20230;-60
2022/04/11 07:48:24;;;;;;;;;;;;;;;8.78;71.16;99834.25;1701588;84;20248;-59
2022/04/11 07:51:28;;;;;;;;;;;;;;;8.74;70.93;99815.69;1769289;80;20219;-60
2022/04/11 07:54:35;;;;;;;;;;;;;;;8.71;71.02;99814.69;1709421;84;20211;-61
2022/04/11 07:57:39;;;;;;;;;;;;;;;8.75;71.23;99794.22;1792644;79;20212;-59
2022/04/11 08:00:54;;;;;;;;;;;;;;;8.77;70.80;99808.51;1791065;79;20242;-60
2022/04/11 08:03:56;;;;;;;;;;;;;;;8.74;71.10;99822.51;1783262;79;20624;-58
2022/04/11 08:07:03;;;;;;;;;;;;;;;8.85;70.93;99833.03;1786801;79;20241;-60
2022/04/11 08:10:26;;;;;;;;;;;;;;;8.96;70.71;99869.48;1783671;79;20186;-61
2022/04/11 08:13:33;;;;;;;;;;;;;;;9.07;70.47;99846.73;1748949;79;20540;-59
2022/04/11 08:16:39;;;;;;;;;;;;;;;9.18;69.92;99853.66;1797850;79;20530;-60
2022/04/11 08:19:48;;;;;;;;;;;;;;;9.28;69.36;99877.50;1785137;79;20245;-60
2022/04/11 08:22:55;;;;;;;;;;;;;;;9.20;68.96;99878.91;1781967;79;20213;-59
2022/04/11 08:26:20;;;;;;;;;;;;;;;9.10;68.97;99880.50;1801495;79;20401;-61
2022/04/11 08:29:27;;;;;;;;;;;;;;;9.02;68.96;99857.88;1762126;79;20240;-66
2022/04/11 08:32:32;;;;;;;;;;;;;;;9.01;69.32;99875.27;1800540;79;20225;-65
2022/04/11 08:35:39;;;;;;;;;;;;;;;9.04;69.40;99877.13;1802560;79;20216;-65
2022/04/11 08:38:43;;;;;;;;;;;;;;;9.15;69.24;99875.86;1781158;79;20206;-65
2022/04/11 08:41:51;;;;;;;;;;;;;;;9.22;68.77;99864.58;1792493;79;20208;-65
2022/04/11 08:44:59;;;;;;;;;;;;;;;9.26;68.49;99849.52;1796559;80;20202;-66
2022/04/11 08:48:03;;;;;;;;;;;;;;;9.37;68.49;99884.61;1789620;79;20205;-66
2022/04/11 08:51:09;;;;;;;;;;;;;;;9.48;68.18;99886.92;1796563;79;20209;-65
2022/04/11 08:54:15;;;;;;;;;;;;;;;9.54;67.69;99882.62;1777803;80;20613;-65
2022/04/11 08:57:21;;;;;;;;;;;;;;;9.45;67.42;99915.97;1778035;79;20221;-62
2022/04/11 09:00:27;;;;;;;;;;;;;;;9.31;67.58;99911.28;1796250;80;20542;-63
2022/04/11 09:03:33;;;;;;;;;;;;;;;9.26;67.81;99908.77;1731477;83;20578;-65
2022/04/11 09:06:41;;;;;;;;;;;;;;;9.23;67.98;99896.30;1731715;83;20832;-62
2022/04/11 09:09:49;;;;;;;;;;;;;;;9.35;67.93;99869.44;1725597;81;20208;-63
2022/04/11 09:13:02;;;;;;;;;;;;;;;9.44;67.80;99856.91;1756880;81;20209;-63
2022/04/11 09:16:07;;;;;;;;;;;;;;;9.58;67.70;99879.34;1756633;81;20204;-63
2022/04/11 09:19:12;;;;;;;;;;;;;;;9.59;67.09;99908.39;1756517;82;20227;-61
2022/04/11 09:22:19;;;;;;;;;;;;;;;9.59;67.27;99909.77;1742805;82;20208;-64
2022/04/11 09:25:25;;;;;;;;;;;;;;;9.57;66.99;99905.48;1746412;82;20557;-64
2022/04/11 09:28:31;;;;;;;;;;;;;;;9.54;66.99;99928.58;1733573;82;20257;-63
2022/04/11 09:31:38;;;;;;;;;;;;;;;9.56;66.96;99915.56;1708307;83;20179;-64
2022/04/11 09:34:42;;;;;;;;;;;;;;;9.53;66.63;99888.60;1734245;81;20217;-62
2022/04/11 09:37:50;;;;;;;;;;;;;;;9.54;66.59;99869.83;1796768;79;20696;-67
2022/04/11 09:41:01;;;;;;;;;;;;;;;9.54;66.90;99855.31;1780968;79;20257;-65
2022/04/11 09:44:40;;;;;;;;;;;;;;;9.65;66.81;99843.45;1802351;79;20245;-63
2022/04/11 09:47:51;;;;;;;;;;;;;;;9.59;66.34;99820.09;1801274;79;20197;-64
2022/04/11 09:50:59;;;;;;;;;;;;;;;9.58;66.35;99853.90;1798570;79;20217;-59
2022/04/11 09:54:04;;;;;;;;;;;;;;;9.58;66.30;99873.02;1788772;78;20213;-62
2022/04/11 09:57:11;;;;;;;;;;;;;;;9.45;66.13;99905.05;1771201;80;20488;-64
2022/04/11 10:00:18;;;;;;;;;;;;;;;9.46;66.78;99935.45;1761732;79;20205;-58
2022/04/11 10:03:23;;;;;;;;;;;;;;;9.57;66.38;99936.41;1778687;79;20278;-59
2022/04/11 10:06:30;;;;;;;;;;;;;;;9.55;66.30;99924.80;1777172;81;20197;-58
2022/04/11 10:09:36;;;;;;;;;;;;;;;9.59;66.25;99901.56;1777046;81;20680;-58
2022/04/11 10:12:44;;;;;;;;;;;;;;;9.63;65.87;99858.30;1790348;79;20213;-58
2022/04/11 10:15:51;;;;;;;;;;;;;;;9.54;65.84;99837.55;1771912;79;20208;-59
2022/04/11 10:18:54;;;;;;;;;;;;;;;9.50;65.86;99864.37;1783185;79;20592;-59
2022/04/11 10:22:01;;;;;;;;;;;;;;;9.48;66.29;99908.78;1787865;79;20205;-59
2022/04/11 10:25:11;;;;;;;;;;;;;;;9.66;66.17;99942.14;1791434;79;20830;-60
2022/04/11 10:28:23;;;;;;;;;;;;;;;9.75;65.73;99954.72;1791046;79;20209;-59
2022/04/11 10:31:28;;;;;;;;;;;;;;;9.77;65.33;99952.66;1787715;79;20562;-58
2022/04/11 10:35:08;;;;;;;;;;;;;;;9.68;65.36;99953.76;1790968;79;20596;-60
2022/04/11 10:38:20;;;;;;;;;;;;;;;9.56;65.47;99936.05;1784231;80;20276;-58
2022/04/11 10:41:24;;;;;;;;;;;;;;;9.46;65.79;99928.62;1781846;79;20500;-59
2022/04/11 10:44:50;;;;;;;;;;;;;;;9.36;65.91;99892.98;1766431;81;20214;-60
2022/04/11 10:47:56;;;;;;;;;;;;;;;9.30;66.04;99894.56;1759834;81;20243;-60
2022/04/11 10:51:03;;;;;;;;;;;;;;;9.41;66.39;99928.30;1711922;82;20254;-58
2022/04/11 10:54:26;;;;;;;;;;;;;;;9.56;65.91;99914.73;1730810;82;20246;-57
2022/04/11 10:57:46;;;;;;;;;;;;;;;9.53;65.45;99890.51;1708615;84;20198;-57
2022/04/11 11:00:52;;;;;;;;;;;;;;;9.46;65.70;99864.42;1704990;82;20262;-56
2022/04/11 11:04:16;;;;;;;;;;;;;;;9.41;65.82;99812.20;1714402;83;20227;-57
2022/04/11 11:07:37;;;;;;;;;;;;;;;9.41;66.02;99823.13;1731857;82;20218;-59
2022/04/11 11:11:01;;;;;;;;;;;;;;;9.35;65.81;99826.60;1711159;83;20250;-60
2022/04/11 11:14:17;;;;;;;;;;;;;;;9.32;65.92;99857.52;1713364;82;20669;-60
2022/04/11 11:18:06;;;;;;;;;;;;;;;9.36;66.24;99872.50;1719485;83;20254;-59
2022/04/11 11:21:29;;;;;;;;;;;;;;;9.54;65.86;99884.86;1715251;84;20237;-61
2022/04/11 11:24:35;;;;;;;;;;;;;;;9.60;65.60;99911.45;1715432;84;20210;-60
2022/04/11 11:27:45;;;;;;;;;;;;;;;9.53;65.42;99885.87;1715744;84;20285;-59
2022/04/11 11:31:16;;;;;;;;;;;;;;;9.45;65.53;99909.14;1707843;84;20285;-61
2022/04/11 11:34:44;;;;;;;;;;;;;;;9.32;65.87;99894.39;1716268;83;20246;-60
2022/04/11 11:37:54;;;;;;;;;;;;;;;9.29;66.12;99902.44;1726358;82;20252;-57
2022/04/11 11:41:18;;;;;;;;;;;;;;;9.18;66.24;99881.50;1766887;79;20632;-61
2022/04/11 11:44:37;;;;;;;;;;;;;;;9.03;66.56;99873.21;1803086;79;20206;-60
2022/04/11 11:48:38;;;;;;;;;;;;;;;8.81;67.05;99846.71;1763285;81;20583;-58
2022/04/11 11:51:52;;;;;;;;;;;;;;;8.68;67.82;99817.27;1771045;80;20248;-60
2022/04/11 11:55:08;;;;;;;;;;;;;;;8.52;68.31;99793.29;1703613;84;20193;-61
2022/04/11 11:58:43;;;;;;;;;;;;;;;8.41;68.69;99805.95;1746154;81;20212;-61
2022/04/11 12:05:36;;;;;;;;;;;;;;;8.42;68.94;99852.67;1768229;79;20571;-61
2022/04/11 12:08:50;;;;;;;;;;;;;;;8.24;68.80;99834.30;1787576;79;20260;-61
2022/04/11 12:12:04;;;;;;;;;;;;;;;8.16;69.51;99847.41;1802746;79;20181;-60
2022/04/11 12:15:14;;;;;;;;;;;;;;;8.15;69.89;99833.95;1780401;79;20209;-63
2022/04/11 12:18:42;;;;;;;;;;;;;;;8.16;69.73;99830.20;1801121;79;20213;-60
2022/04/11 12:22:18;;;;;;;;;;;;;;;8.09;70.02;99852.34;1782511;79;20698;-59
2022/04/11 12:25:33;;;;;;;;;;;;;;;8.10;70.27;99875.88;1790978;79;20234;-60
2022/04/11 12:28:41;;;;;;;;;;;;;;;8.07;70.42;99882.50;1784577;79;20253;-58
2022/04/11 12:32:05;;;;;;;;;;;;;;;8.11;70.46;99892.55;1776662;80;20572;-56
2022/04/11 12:35:25;;;;;;;;;;;;;;;8.23;70.28;99866.69;1776230;80;20221;-57
2022/04/11 12:38:50;;;;;;;;;;;;;;;8.25;70.11;99860.53;1777469;78;20209;-58
2022/04/11 12:41:57;;;;;;;;;;;;;;;8.19;69.85;99857.97;1776676;79;20240;-57
2022/04/11 12:45:15;;;;;;;;;;;;;;;8.19;70.07;99872.96;1775161;80;20229;-57
2022/04/11 12:48:19;;;;;;;;;;;;;;;8.22;69.95;99886.75;1776205;80;20232;-57
2022/04/11 12:51:29;;;;;;;;;;;;;;;8.16;70.00;99906.53;1773854;81;20209;-56
2022/04/11 12:54:33;;;;;;;;;;;;;;;8.09;70.26;99894.59;1792220;79;20605;-57
2022/04/11 12:57:40;;;;;;;;;;;;;;;7.96;70.69;99884.22;1703722;83;20208;-56
2022/04/11 13:00:45;;;;;;;;;;;;;;;7.94;71.17;99877.25;1770768;80;20207;-57
2022/04/11 13:03:55;;;;;;;;;;;;;;;7.95;71.25;99883.02;1793186;79;20197;-63
2022/04/11 13:06:59;;;;;;;;;;;;;;;7.83;71.43;99857.16;1780807;79;20616;-61
2022/04/11 13:10:05;;;;;;;;;;;;;;;7.80;71.83;99854.78;1778047;80;20256;-63
2022/04/11 13:13:12;;;;;;;;;;;;;;;7.88;71.94;99855.61;1777737;80;20221;-61
2022/04/11 13:19:41;;;;;;;;;;;;;;;7.81;71.77;99837.41;1784253;79;20206;-61
2022/04/11 13:22:47;;;;;;;;;;;;;;;7.78;71.80;99841.33;1792360;79;20240;-60
2022/04/11 13:25:53;;;;;;;;;;;;;;;7.76;71.91;99890.18;1772468;79;20217;-64
2022/04/11 13:29:00;;;;;;;;;;;;;;;7.79;72.07;99888.48;1784222;79;20562;-63
2022/04/11 13:32:06;;;;;;;;;;;;;;;7.79;72.19;99885.25;1710048;82;20213;-63
2022/04/11 13:35:12;;;;;;;;;;;;;;;7.83;72.59;99902.98;1731672;82;20277;-62
2022/04/11 13:38:18;;;;;;;;;;;;;;;7.86;72.75;99897.69;1728560;81;20543;-63
2022/04/11 13:41:25;;;;;;;;;;;;;;;7.84;72.84;99898.36;1788776;79;20198;-60
2022/04/11 13:44:36;;;;;;;;;;;;;;;7.80;72.92;99910.10;1751319;81;20615;-61
2022/04/11 13:47:43;;;;;;;;;;;;;;;7.78;73.22;99879.47;1790207;80;20233;-62
2022/04/11 13:50:49;;;;;;;;;;;;;;;7.78;73.42;99882.70;1779733;80;20205;-61
2022/04/11 13:53:56;;;;;;;;;;;;;;;7.77;73.54;99867.39;1770682;80;20194;-60
2022/04/11 13:57:03;;;;;;;;;;;;;;;7.75;73.75;99882.54;1780233;80;20260;-62
2022/04/11 14:00:10;;;;;;;;;;;;;;;7.70;73.90;99892.23;1784698;80;20826;-62
2022/04/11 14:03:17;;;;;;;;;;;;;;;7.63;74.26;99894.27;1787854;80;20556;-65
2022/04/11 14:06:25;;;;;;;;;;;;;;;7.63;74.55;99883.38;1763434;81;20216;-61
2022/04/11 14:09:30;;;;;;;;;;;;;;;7.60;74.72;99881.00;1796583;79;20201;-61
2022/04/11 14:12:37;;;;;;;;;;;;;;;7.56;74.84;99891.88;1765327;81;20572;-59
2022/04/11 14:15:42;;;;;;;;;;;;;;;7.55;74.96;99895.63;1766479;81;20244;-62
2022/04/11 14:18:49;;;;;;;;;;;;;;;7.51;75.04;99898.36;1783332;80;20221;-59
2022/04/11 14:21:54;;;;;;;;;;;;;;;7.48;75.24;99884.22;1768974;79;20217;-59
2022/04/11 14:25:00;;;;;;;;;;;;;;;7.43;75.42;99879.78;1797111;79;20205;-60
2022/04/11 14:28:07;;;;;;;;;;;;;;;7.48;75.64;99883.69;1785162;80;20250;-60
2022/04/11 14:31:13;;;;;;;;;;;;;;;7.53;75.64;99886.77;1770653;80;20241;-59
2022/04/11 14:34:18;;;;;;;;;;;;;;;7.51;75.64;99897.50;1770606;80;20222;-59
2022/04/11 14:37:26;;;;;;;;;;;;;;;7.51;75.68;99898.86;1765724;81;20212;-60
2022/04/11 14:40:33;;;;;;;;;;;;;;;7.47;75.72;99907.00;1705722;83;20208;-59
2022/04/11 14:43:40;;;;;;;;;;;;;;;7.46;75.75;99915.70;1768960;81;20212;-59
2022/04/11 14:47:02;;;;;;;;;;;;;;;7.44;75.65;99914.16;1748959;81;20234;-62
2022/04/11 14:50:17;;;;;;;;;;;;;;;7.35;75.74;99906.50;1768098;81;20313;-62
2022/04/11 14:53:22;;;;;;;;;;;;;;;7.34;75.74;99895.24;1768234;81;20656;-60
2022/04/11 14:56:27;;;;;;;;;;;;;;;7.28;76.00;99905.45;1768205;81;20212;-60
2022/04/11 14:59:32;;;;;;;;;;;;;;;7.25;76.17;99900.34;1768580;81;20287;-62
2022/04/11 15:02:36;;;;;;;;;;;;;;;7.24;76.34;99902.73;1748354;81;20258;-63
2022/04/11 15:05:41;;;;;;;;;;;;;;;7.18;76.47;99915.61;1775151;81;20617;-61
2022/04/11 15:08:51;;;;;;;;;;;;;;;7.15;76.58;99920.03;1775368;80;20245;-60
2022/04/11 15:11:58;;;;;;;;;;;;;;;7.12;76.52;99903.20;1775939;80;20652;-62
2022/04/11 15:15:03;;;;;;;;;;;;;;;7.06;76.62;99889.73;1755778;80;20276;-61
2022/04/11 15:18:08;;;;;;;;;;;;;;;7.01;76.65;99879.85;1776129;80;20244;-61
2022/04/11 15:21:12;;;;;;;;;;;;;;;6.99;76.79;99865.55;1775728;80;20271;-62
2022/04/11 15:24:16;;;;;;;;;;;;;;;6.95;76.87;99853.81;1775748;80;20213;-62
2022/04/11 15:27:20;;;;;;;;;;;;;;;6.95;77.12;99856.53;1775626;80;20265;-59
2022/04/11 15:30:27;;;;;;;;;;;;;;;6.95;77.18;99851.09;1775500;81;20557;-63
2022/04/11 15:33:32;;;;;;;;;;;;;;;6.92;77.36;99840.05;1775034;80;20213;-62
2022/04/11 15:36:37;;;;;;;;;;;;;;;6.94;77.25;99852.98;1775153;80;20637;-62
2022/04/11 15:39:41;;;;;;;;;;;;;;;6.94;77.24;99833.08;1751695;79;20209;-61
2022/04/11 15:42:48;;;;;;;;;;;;;;;6.91;77.12;99825.25;1781389;80;20224;-60
2022/04/11 15:45:57;;;;;;;;;;;;;;;6.91;77.20;99826.61;1781860;79;20266;-65
2022/04/11 15:49:03;;;;;;;;;;;;;;;6.89;77.21;99836.30;1782833;80;20622;-64
2022/04/11 15:52:12;;;;;;;;;;;;;;;6.89;77.33;99819.11;1781898;79;20190;-63
2022/04/11 15:55:20;;;;;;;;;;;;;;;6.88;77.31;99803.29;1786268;79;20265;-62
2022/04/11 15:58:29;;;;;;;;;;;;;;;6.83;77.31;99804.33;1781960;80;20509;-63
2022/04/11 16:01:33;;;;;;;;;;;;;;;6.78;77.53;99791.73;1782252;79;20210;-64
2022/04/11 16:04:36;;;;;;;;;;;;;;;6.77;77.81;99787.28;1781447;80;20594;-63
2022/04/11 16:07:41;;;;;;;;;;;;;;;6.75;77.99;99792.06;1781772;80;20218;-62
2022/04/11 16:10:47;;;;;;;;;;;;;;;6.75;78.08;99776.23;1781873;79;20650;-64
2022/04/11 16:13:52;;;;;;;;;;;;;;;6.75;78.26;99775.74;1782062;80;20210;-61
2022/04/11 16:16:58;;;;;;;;;;;;;;;6.74;78.65;99765.86;1782019;79;20250;-62
2022/04/11 16:20:04;;;;;;;;;;;;;;;6.72;78.96;99762.48;1781792;79;20198;-65
2022/04/11 16:23:08;;;;;;;;;;;;;;;6.68;79.41;99754.30;1782407;80;20285;-65
2022/04/11 16:26:16;;;;;;;;;;;;;;;6.62;79.72;99755.47;1782458;79;20209;-61
2022/04/11 16:29:22;;;;;;;;;;;;;;;6.52;80.05;99768.34;1782308;80;20234;-63
2022/04/11 16:32:30;;;;;;;;;;;;;;;6.44;80.40;99790.92;1782366;80;20214;-60
2022/04/11 16:35:35;;;;;;;;;;;;;;;6.41;80.63;99774.94;1782323;79;20198;-61
2022/04/11 16:38:44;;;;;;;;;;;;;;;6.38;80.76;99767.62;1782201;80;20551;-60